No data was retrieved for https://query.yahooapis.com/v1/public/yql?q=select+%2A+from+weather.forecast+where+woeid%3D973505&format=xml&u=c


Lesvos Island / Mitilini / Pligoni / SV8DTD



warning for Thunderstorms more information blitzortung!


Rain radar more information rain snow radar


Visit our other weather sites:

Template documentation
and downloads

And another site



Thunderstorms From: 21-01-2022 08:00 Until: 23:59 warning for: Thunderstorms Level: Yellow info button
english:
LOCALLY THUNDERSTORMS

Ελληνικά:
ΤΟΠΙΚΕΣ ΚΑΤΑΙΓΙΔΕΣ 

Wind From: 21-01-2022 13:00 Until: 22:00 warning for: Wind Level: Yellow info button
english:
Locally gale force winds

Ελληνικά:
Τοπικά Θυελλώδεις άνεμοι 

Nearby METAR Reports

   
EHVK - Volkel Rnlafb, Netherlands
Distance from station: SW 18 km
Updated: Fri-Jan-2022 21:35
Overcast  
Overcast  
   Wind: West 13 km/h
Wind: West 13 km/h
Temperature: 5°C
Wind Chill: 2°C
Dew Point: 3°C
Humidity: 87%
Barometer: 1033 hPa
Clouds: Overcast
Visibility: More than 10 km
Cloud details: Partly Cloudy 1400 ft,
Mostly Cloudy 1800 ft,
Overcast 2300 ft
EHVK 211935Z AUTO 26007KT 9999 SCT014 BKN018 OVC023 05/03 Q1033 GRN
EDLV - Niederrhein, Germany
Distance from station: SE 25 km
Updated: Fri-Jan-2022 21:20
Mostly Cloudy  
Mostly Cloudy  
   Wind: West 14.8 km/h
Wind: West 14.8 km/h
Temperature: 5°C
Wind Chill: 2°C
Dew Point: 3°C
Humidity: 87%
Barometer: 1033 hPa
Clouds: Mostly Cloudy
Visibility: More than 10 km
Cloud details: Mostly Cloudy 3100 ft
EDLV 211920Z 27008KT 9999 BKN031 05/03 Q1033
EHDL - Deelen Rnlafb, Netherlands
Distance from station: N 35 km
Updated: Fri-Jan-2022 21:25
Overcast  
Overcast  
   Wind: West 13 km/h
Wind: West 13 km/h
Temperature: 5°C
Wind Chill: 2°C
Dew Point: 4°C
Humidity: 93%
Barometer: 1032 hPa
Clouds: Overcast
Visibility: More than 10 km
Cloud details: Few Clouds 1600 ft,
Mostly Cloudy 2000 ft,
Overcast 2300 ft
EHDL 211925Z AUTO 27007KT 220V330 9999 FEW016 BKN020 OVC023 05/04 Q1032 WHT
EHEH - Eindhoven Rnlafb, Netherlands
Distance from station: SW 48 km
Updated: Fri-Jan-2022 21:25
Overcast  
Overcast  
   Wind: WSW 13 km/h
Wind: WSW 13 km/h
Temperature: 5°C
Wind Chill: 2°C
Dew Point: 2°C
Humidity: 81%
Barometer: 1034 hPa
Clouds: Overcast
Visibility: More than 10 km
Cloud details: Overcast 2900 ft
EHEH 211925Z AUTO 25007KT 230V310 9999 OVC029 05/02 Q1034 BLU NOSIG
EHGR - Gilze-Rijen Rnla, Netherlands
Distance from station: WSW 70 km
Updated: Fri-Jan-2022 21:42
Overcast  
Overcast  
   Wind: West 9.3 km/h
Wind: West 9.3 km/h
Temperature: 4°C
Wind Chill: 2°C
Dew Point: 2°C
Humidity: 87%
Barometer: 1034 hPa
Clouds: Overcast
Visibility: More than 10 km
Cloud details: Partly Cloudy 2200 ft,
Mostly Cloudy 2500 ft,
Overcast 2900 ft
EHGR 211942Z AUTO 26005KT 9999 SCT022 BKN025 OVC029 04/02 Q1034 WHT
EBBL - Kleine-Brogel(Ba, Belgium
Distance from station: SSW 71 km
Updated: Fri-Jan-2022 21:25
Overcast  
Overcast  
   Wind: West 11.1 km/h
Wind: West 11.1 km/h
Temperature: 4°C
Wind Chill: 1°C
Dew Point: 2°C
Humidity: 87%
Barometer: 1034 hPa
Clouds: Overcast
Visibility: More than 10 km
Cloud details: Overcast 3600 ft
EBBL 211925Z AUTO 27006KT 9999 OVC036/// 04/02 Q1034 BLU

Script developed by  Saratoga-weather.org Adapted for the template by  Weerstation Leuven

You find our weather info also at:

European Weather Network

Citizen Weather Observer Program (CWOP)

Equipment we use:

Weather-station
Davis VP2

Weather-program
Meteohub

Davis VP2

Meteohub